Data for 12/29/2009

Time Sea-Level Adjusted Pressure Absolute Pressure Temperature Relative Humidity Dew Point   
(mb) (inHg) (mb) (inHg) (C) (F) (%) (C) (F)
00:05 1018 30.06 848 25.04 -9 15.8 70 -13.6 7.5
00:10 1018 30.06 848 25.04 -8.9 16 69 -13.6 7.5
00:15 1018 30.06 848 25.04 -9 15.8 69 -13.6 7.5
00:20 1018 30.06 847 25.01 -9.3 15.3 72 -13.5 7.6
00:25 1018 30.06 847 25.01 -9.4 15.1 72 -13.6 7.5
00:30 1018 30.06 847 25.01 -9.3 15.3 71 -13.6 7.5
00:35 1018 30.06 847 25.01 -9.1 15.7 70 -13.6 7.5
00:40 1018 30.06 847 25.01 -9 15.7 71 -13.5 7.8
00:45 1018 30.06 847 25.01 -9.1 15.7 71 -13.4 7.9
00:50 1018 30.06 847 25.01 -9.1 15.6 72 -13.4 8
00:55 1018 30.06 847 25.01 -8.6 16.5 70 -13.2 8.2
01:00 1018 30.06 847 25.01 -9.1 15.6 73 -13.1 8.5
01:05 1018 30.06 847 25.01 -9.4 15.1 73 -13.4 7.9
01:10 1018 30.06 847 25.01 -9.5 14.9 75 -13.1 8.4
01:15 1018 30.06 847 25.01 -9.6 14.7 75 -13.2 8.2
01:20 1018 30.06 847 25.01 -9.6 14.6 72 -13.8 7.1
01:25 1018 30.06 847 25.01 -9.6 14.8 72 -13.6 7.4
01:30 1018 30.06 847 25.01 -9.3 15.2 71 -13.7 7.3
01:35 1018 30.06 847 25.01 -9.2 15.5 70 -13.6 7.4
01:40 1018 30.06 847 25.01 -9.2 15.4 73 -13.2 8.2
01:45 1018 30.06 847 25.01 -9.2 15.4 71 -13.5 7.7
01:50 1018 30.06 847 25.01 -9.6 14.8 73 -13.5 7.6
01:55 1018 30.06 847 25.01 -9.7 14.6 73 -13.7 7.3
02:00 1018 30.06 847 25.01 -9.8 14.3 73 -13.8 7.2
02:05 1018 30.06 847 25.01 -9.9 14.3 73 -13.7 7.3
02:10 1018 30.06 847 25.01 -9.6 14.7 73 -13.7 7.4
02:15 1018 30.06 847 25.01 -9.6 14.8 73 -13.5 7.7
02:20 1018 30.06 847 25.01 -9.5 15 72 -13.6 7.5
02:25 1018 30.06 847 25.01 -9.8 14.4 74 -13.5 7.6
02:30 1018 30.06 847 25.01 -9.3 15.2 72 -13.5 7.6
02:35 1018 30.06 847 25.01 -9.2 15.5 72 -13.3 8.1
02:40 1018 30.06 847 25.01 -9.4 15.2 72 -13.5 7.8
02:45 1018 30.06 847 25.01 -9.8 14.3 73 -13.8 7.1
02:50 1018 30.06 847 25.01 -10 14.1 74 -13.8 7.2
02:55 1018 30.06 847 25.01 -9.8 14.3 73 -13.8 7.2
03:00 1018 30.06 847 25.01 -9.7 14.5 72 -13.8 7.1
03:05 1018 30.06 847 25.01 -10.1 13.8 74 -13.9 7
03:10 1018 30.06 847 25.01 -10.3 13.5 74 -14 6.8
03:15 1018 30.06 847 25.01 -10.4 13.3 74 -14.2 6.5
03:20 1018 30.06 847 25.01 -10.6 13 75 -14.1 6.6
03:25 1018 30.06 847 25.01 -10.6 12.9 75 -14.2 6.4
03:30 1018 30.06 847 25.01 -10.6 12.9 75 -14.2 6.4
03:35 1018 30.06 847 25.01 -10.7 12.7 75 -14.3 6.3
03:40 1018 30.06 847 25.01 -10.8 12.7 76 -14.3 6.3
03:45 1018 30.06 847 25.01 -10.6 12.9 75 -14.2 6.5
03:50 1018 30.06 847 25.01 -10.3 13.5 74 -14 6.8
03:55 1018 30.06 847 25.01 -10 14 73 -13.9 7
04:00 1017 30.03 847 25.01 -9.9 14.3 73 -13.9 7.1
04:05 1017 30.03 847 25.01 -9.9 14.3 73 -13.8 7.1
04:10 1017 30.03 847 25.01 -9.8 14.3 73 -13.8 7.2
04:15 1017 30.03 847 25.01 -9.8 14.3 74 -13.7 7.3
04:20 1017 30.03 847 25.01 -9.9 14.2 73 -13.8 7.1
04:25 1017 30.03 847 25.01 -10.2 13.7 74 -13.9 7
04:30 1017 30.03 846 24.98 -10.4 13.2 75 -14.1 6.6
04:35 1017 30.03 846 24.98 -10.6 13 76 -14.1 6.7
04:40 1017 30.03 846 24.98 -10.6 13 75 -14.2 6.4
04:45 1017 30.03 846 24.98 -10.6 12.9 75 -14.2 6.4
04:50 1017 30.03 846 24.98 -10.6 13 75 -14.2 6.4
04:55 1017 30.03 846 24.98 -10.6 13 75 -14.2 6.4
05:00 1017 30.03 846 24.98 -10.6 13 75 -14.3 6.3
05:05 1017 30.03 846 24.98 -10.5 13.1 74 -14.3 6.2
05:10 1017 30.03 846 24.98 -10.6 13 74 -14.4 6.1
05:15 1017 30.03 846 24.98 -11 12.3 75 -14.6 5.8
05:20 1017 30.03 846 24.98 -11.4 11.5 76 -14.8 5.3
05:25 1017 30.03 846 24.98 -11.3 11.6 75 -14.9 5.3
05:30 1017 30.03 846 24.98 -11.2 11.8 76 -14.7 5.5
05:35 1017 30.03 846 24.98 -11.4 11.6 76 -14.8 5.4
05:40 1017 30.03 846 24.98 -11.2 11.8 76 -14.7 5.5
05:45 1017 30.03 846 24.98 -11.1 12.1 76 -14.6 5.8
05:50 1017 30.03 846 24.98 -10.7 12.7 74 -14.5 5.9
05:55 1017 30.03 846 24.98 -10.4 13.4 73 -14.3 6.3
06:00 1017 30.03 846 24.98 -10.2 13.7 72 -14.2 6.4
06:05 1017 30.03 846 24.98 -10 14.1 72 -14.2 6.5
06:10 1017 30.03 846 24.98 -9.7 14.5 71 -14 6.8
06:15 1017 30.03 846 24.98 -9.6 14.7 70 -14 6.7
06:20 1017 30.03 846 24.98 -9.5 14.9 70 -14 6.9
06:25 1017 30.03 846 24.98 -9.6 14.7 71 -14 6.8
06:30 1017 30.03 846 24.98 -10.1 13.9 72 -14.3 6.3
06:35 1017 30.03 846 24.98 -10.5 13.1 73 -14.4 6
06:40 1017 30.03 846 24.98 -10.6 12.9 75 -14.3 6.3
06:45 1017 30.03 846 24.98 -10.5 13.2 73 -14.3 6.2
06:50 1017 30.03 846 24.98 -10.4 13.3 73 -14.4 6.2
06:55 1017 30.03 846 24.98 -10.8 12.5 75 -14.5 5.9
07:00 1017 30.03 846 24.98 -10.7 12.7 73 -14.6 5.7
07:05 1017 30.03 846 24.98 -10.4 13.3 72 -14.5 5.9
07:10 1017 30.03 846 24.98 -10.3 13.4 72 -14.4 6
07:15 1017 30.03 846 24.98 -10.3 13.6 71 -14.5 5.9
07:20 1017 30.03 846 24.98 -10.8 12.7 73 -14.8 5.4
07:25 1017 30.03 846 24.98 -10.8 12.6 73 -14.6 5.7
07:30 1017 30.03 846 24.98 -10.7 12.8 73 -14.7 5.6
07:35 1017 30.03 846 24.98 -10.8 12.5 74 -14.7 5.6
07:40 1017 30.03 846 24.98 -11.3 11.6 76 -14.8 5.3
07:45 1017 30.03 846 24.98 -11.6 11.1 76 -15 4.9
07:50 1017 30.03 846 24.98 -11.7 11 76 -15.1 4.8
07:55 1016 30 846 24.98 -11.8 10.7 77 -15.1 4.8
08:00 1016 30 846 24.98 -11.9 10.5 77 -15.3 4.5
08:05 1016 30 846 24.98 -12 10.4 77 -15.2 4.6
08:10 1016 30 846 24.98 -11.6 11 76 -15.1 4.8
08:15 1016 30 846 24.98 -11.4 11.4 75 -14.9 5.1
08:20 1016 30 845 24.95 -11.3 11.6 74 -15.1 4.9
08:25 1016 30 845 24.95 -11.3 11.7 74 -15 4.9
08:30 1016 30 845 24.95 -11.4 11.5 75 -15.1 4.9
08:35 1016 30 845 24.95 -11.4 11.5 75 -15 5.1
08:40 1016 30 845 24.95 -11.3 11.8 75 -14.8 5.3
08:45 1016 30 845 24.95 -10.8 12.5 74 -14.6 5.8
08:50 1016 30 845 24.95 -10.5 13.1 73 -14.5 5.9
08:55 1016 30 845 24.95 -11.1 12.1 74 -14.8 5.3
09:00 1016 30 845 24.95 -11.2 11.9 75 -14.7 5.5
09:05 1016 30 845 24.95 -10.6 12.9 73 -14.5 5.8
09:10 1016 30 845 24.95 -10 14 70 -14.5 5.9
09:15 1016 30 845 24.95 -9.7 14.6 71 -14.1 6.7
09:20 1016 30 845 24.95 -9.7 14.5 69 -14.4 6
09:25 1016 30 845 24.95 -9.6 14.6 68 -14.6 5.8
09:30 1016 30 845 24.95 -9.6 14.7 68 -14.4 6
09:35 1016 30 845 24.95 -9.4 15 67 -14.5 6
09:40 1016 30 845 24.95 -9.1 15.7 65 -14.5 5.9
09:45 1016 30 845 24.95 -8.6 16.6 63 -14.3 6.2
09:50 1016 30 846 24.98 -8.2 17.2 62 -14.2 6.4
09:55 1016 30 846 24.98 -7.5 18.5 59 -14.2 6.4
10:00 1016 30 846 24.98 -7.2 19 59 -14 6.8
10:05 1016 30 845 24.95 -6.6 20 57 -13.8 7.2
10:10 1016 30 845 24.95 -6.2 20.8 56 -13.6 7.6
10:15 1016 30 845 24.95 -5.8 21.6 55 -13.5 7.7
10:20 1016 30 845 24.95 -5.2 22.6 54 -13.3 8.1
10:25 1016 30 845 24.95 -5 23.1 53 -13.2 8.3
10:30 1016 30 845 24.95 -4.6 23.8 52 -13.1 8.4
10:35 1016 30 845 24.95 -4.3 24.4 50 -13.2 8.3
10:40 1016 30 845 24.95 -4.3 24.2 51 -13.1 8.4
10:45 1016 30 845 24.95 -4.7 23.5 52 -13.1 8.4
10:50 1016 30 845 24.95 -4.6 23.7 51 -13.3 8
10:55 1016 30 845 24.95 -4.2 24.4 51 -13 8.7
11:00 1016 30 845 24.95 -4.7 23.6 53 -12.9 8.7
11:05 1016 30 845 24.95 -4.8 23.3 53 -13 8.6
11:10 1016 30 845 24.95 -4.5 24 52 -12.9 8.8
11:15 1016 30 845 24.95 -3.8 25.2 49 -13.1 8.4
11:20 1016 30 845 24.95 -3.2 26.2 48 -12.7 9.1
11:25 1016 30 845 24.95 -3.4 25.9 48 -12.8 9
11:30 1015 29.97 845 24.95 -3.5 25.7 51 -12.3 9.8
11:35 1015 29.97 845 24.95 -3.5 25.7 48 -12.9 8.8
11:40 1015 29.97 845 24.95 -3.1 26.4 47 -12.9 8.7
11:45 1015 29.97 844 24.92 -3.3 26.1 48 -12.8 8.9
11:50 1015 29.97 844 24.92 -3.8 25.2 50 -12.8 9
11:55 1015 29.97 844 24.92 -4 24.8 50 -13 8.6
12:00 1015 29.97 844 24.92 -3.7 25.4 51 -12.5 9.4
12:05 1015 29.97 844 24.92 -3.6 25.4 50 -12.7 9.2
12:10 1015 29.97 844 24.92 -3.5 25.7 50 -12.6 9.4
12:15 1015 29.97 844 24.92 -3.8 25.2 51 -12.4 9.6
12:20 1015 29.97 844 24.92 -3.7 25.4 50 -12.5 9.4
12:25 1015 29.97 844 24.92 -3.5 25.8 49 -12.8 9
12:30 1015 29.97 844 24.92 -3.2 26.2 49 -12.5 9.5
12:35 1015 29.97 844 24.92 -3.9 25 52 -12.3 9.9
12:40 1015 29.97 844 24.92 -4.3 24.3 53 -12.4 9.6
12:45 1015 29.97 844 24.92 -4.3 24.2 53 -12.5 9.6
12:50 1015 29.97 844 24.92 -4.2 24.4 53 -12.3 9.8
12:55 1015 29.97 844 24.92 -4.4 24.1 54 -12.4 9.7
13:00 1015 29.97 844 24.92 -4.4 24.2 54 -12.2 10
13:05 1014 29.94 844 24.92 -4.7 23.6 55 -12.4 9.7
13:10 1014 29.94 844 24.92 -4.8 23.4 55 -12.5 9.5
13:15 1014 29.94 843 24.89 -5 23 56 -12.6 9.4
13:20 1014 29.94 843 24.89 -4.9 23.3 55 -12.6 9.4
13:25 1014 29.94 843 24.89 -4.7 23.5 54 -12.6 9.4
13:30 1014 29.94 843 24.89 -4.6 23.8 54 -12.6 9.4
13:35 1014 29.94 843 24.89 -5.1 22.9 55 -12.8 9
13:40 1014 29.94 843 24.89 -5.1 22.9 54 -13 8.6
13:45 1014 29.94 843 24.89 -5.1 22.8 56 -12.6 9.3
13:50 1014 29.94 843 24.89 -4.9 23.1 53 -13.1 8.5
13:55 1014 29.94 843 24.89 -4.9 23.2 54 -12.8 9
14:00 1014 29.94 843 24.89 -4.4 24 51 -13 8.5
14:05 1014 29.94 843 24.89 -4.2 24.4 53 -12.5 9.4
14:10 1014 29.94 843 24.89 -4.1 24.5 51 -12.9 8.8
14:15 1014 29.94 843 24.89 -3.9 25 50 -12.9 8.7
14:20 1014 29.94 843 24.89 -4.2 24.5 50 -13.2 8.3
14:25 1014 29.94 843 24.89 -4.5 24 52 -12.9 8.7
14:30 1014 29.94 843 24.89 -4.2 24.5 52 -12.7 9.1
14:35 1014 29.94 843 24.89 -3.8 25.2 50 -12.7 9.2
14:40 1014 29.94 843 24.89 -3.5 25.6 51 -12.3 9.9
14:45 1014 29.94 843 24.89 -3.3 26.1 49 -12.5 9.6
14:50 1014 29.94 843 24.89 -3.4 25.9 51 -12.2 10
14:55 1014 29.94 843 24.89 -3.3 26 51 -12.2 10.1
15:00 1014 29.94 843 24.89 -3.5 25.6 52 -12.1 10.3
15:05 1014 29.94 843 24.89 -3.4 25.8 52 -12.1 10.3
15:10 1014 29.94 843 24.89 -3.2 26.2 52 -11.7 10.9
15:15 1014 29.94 843 24.89 -3.4 25.8 52 -11.8 10.7
15:20 1014 29.94 843 24.89 -3.7 25.4 53 -12 10.5
15:25 1014 29.94 843 24.89 -3.7 25.3 52 -12.1 10.2
15:30 1014 29.94 843 24.89 -3.9 25 55 -11.7 10.9
15:35 1014 29.94 843 24.89 -4.4 24.1 58 -11.4 11.4
15:40 1014 29.94 843 24.89 -4.9 23.1 60 -11.5 11.3
15:45 1014 29.94 843 24.89 -4.7 23.6 60 -11.4 11.5
15:50 1014 29.94 843 24.89 -4.9 23.2 60 -11.5 11.4
15:55 1014 29.94 843 24.89 -5.1 22.7 61 -11.6 11
16:00 1014 29.94 843 24.89 -5.2 22.7 61 -11.6 11.2
16:05 1014 29.94 843 24.89 -5.1 22.7 61 -11.5 11.3
16:10 1014 29.94 843 24.89 -5.2 22.6 61 -11.6 11.1
16:15 1014 29.94 843 24.89 -5.4 22.4 62 -11.5 11.2
16:20 1014 29.94 843 24.89 -5.3 22.5 61 -11.7 10.9
16:25 1014 29.94 843 24.89 -5.2 22.6 60 -11.8 10.8
16:30 1013 29.91 843 24.89 -5.2 22.7 60 -11.8 10.7
16:35 1013 29.91 843 24.89 -5.5 22.1 61 -11.8 10.7
16:40 1013 29.91 843 24.89 -5.7 21.8 60 -12.2 10
16:45 1013 29.91 843 24.89 -5.9 21.4 62 -12.1 10.1
16:50 1013 29.91 843 24.89 -6.1 21 63 -12.1 10.2
16:55 1013 29.91 842 24.86 -6.2 20.9 65 -11.8 10.7
17:00 1013 29.91 842 24.86 -6.2 20.8 64 -12 10.4
17:05 1013 29.91 842 24.86 -6.5 20.4 64 -12.2 10.1
17:10 1013 29.91 842 24.86 -6.6 20 65 -12.2 10.1
17:15 1013 29.91 842 24.86 -6.6 20.1 65 -12.1 10.2
17:20 1013 29.91 842 24.86 -6.7 20 64 -12.5 9.6
17:25 1013 29.91 842 24.86 -6.6 20 64 -12.3 9.8
17:30 1013 29.91 842 24.86 -6.7 20 65 -12.3 9.9
17:35 1013 29.91 842 24.86 -6.8 19.8 65 -12.3 9.9
17:40 1013 29.91 842 24.86 -6.8 19.8 64 -12.4 9.7
17:45 1013 29.91 842 24.86 -6.9 19.6 65 -12.4 9.7
17:50 1013 29.91 842 24.86 -7 19.4 65 -12.5 9.6
17:55 1013 29.91 842 24.86 -7 19.4 65 -12.5 9.5
18:00 1013 29.91 842 24.86 -7 19.3 65 -12.6 9.3
18:05 1013 29.91 842 24.86 -7.1 19.3 63 -12.9 8.8
18:10 1013 29.91 842 24.86 -6.6 20.2 61 -12.9 8.9
18:15 1013 29.91 842 24.86 -6 21.3 65 -11.5 11.3
18:20 1013 29.91 842 24.86 -5.7 21.7 67 -11 12.2
18:25 1013 29.91 842 24.86 -5.4 22.2 61 -11.8 10.7
18:30 1013 29.91 842 24.86 -7 19.4 67 -12.1 10.1
18:35 1013 29.91 842 24.86 -7.8 18 69 -12.4 9.6
18:40 1013 29.91 842 24.86 -7.8 18 69 -12.6 9.4
18:45 1013 29.91 842 24.86 -7.8 18 70 -12.4 9.7
18:50 1013 29.91 842 24.86 -7.9 17.8 69 -12.7 9.2
18:55 1013 29.91 842 24.86 -7.8 18.1 68 -12.7 9.2
19:00 1013 29.91 842 24.86 -7.6 18.4 67 -12.6 9.3
19:05 1013 29.91 842 24.86 -7.3 18.8 67 -12.4 9.7
19:10 1013 29.91 842 24.86 -7.4 18.6 68 -12.4 9.6
19:15 1013 29.91 842 24.86 -7.6 18.2 68 -12.6 9.4
19:20 1013 29.91 842 24.86 -7.8 18 68 -12.6 9.3
19:25 1013 29.91 842 24.86 -7.8 18 68 -12.6 9.2
19:30 1013 29.91 843 24.89 -7.5 18.6 68 -12.5 9.5
19:35 1013 29.91 842 24.86 -7.5 18.5 68 -12.4 9.8
19:40 1013 29.91 842 24.86 -7.2 19 68 -12.2 10
19:45 1013 29.91 842 24.86 -6.7 19.9 65 -12.2 10
19:50 1013 29.91 842 24.86 -6.7 19.9 65 -12.3 9.9
19:55 1013 29.91 842 24.86 -6.6 20.1 65 -12.2 10
20:00 1013 29.91 842 24.86 -6.5 20.3 63 -12.4 9.6
20:05 1013 29.91 842 24.86 -6.2 20.9 62 -12.3 9.8
20:10 1013 29.91 842 24.86 -6.2 20.8 64 -12 10.4
20:15 1013 29.91 842 24.86 -6.8 19.8 68 -11.8 10.8
20:20 1013 29.91 842 24.86 -6.9 19.5 68 -11.9 10.6
20:25 1013 29.91 842 24.86 -6.7 19.9 67 -11.8 10.7
20:30 1013 29.91 842 24.86 -6.4 20.4 69 -11.2 11.8
20:35 1013 29.91 842 24.86 -6.3 20.7 68 -11.3 11.6
20:40 1013 29.91 842 24.86 -6.3 20.7 67 -11.5 11.3
20:45 1013 29.91 842 24.86 -6.1 21.1 66 -11.5 11.3
20:50 1013 29.91 842 24.86 -5.8 21.6 66 -11.1 12
20:55 1013 29.91 842 24.86 -5.7 21.8 67 -10.9 12.4
21:00 1013 29.91 842 24.86 -5.5 22.1 67 -10.7 12.7
21:05 1013 29.91 842 24.86 -5.5 22 67 -10.8 12.6
21:10 1013 29.91 842 24.86 -5.4 22.2 65 -11 12.3
21:15 1013 29.91 842 24.86 -5.4 22.2 66 -10.9 12.4
21:20 1013 29.91 842 24.86 -5.5 22 66 -10.9 12.4
21:25 1013 29.91 842 24.86 -5.7 21.8 68 -10.6 12.9
21:30 1013 29.91 842 24.86 -5.9 21.4 68 -10.8 12.5
21:35 1013 29.91 842 24.86 -6.5 20.3 72 -10.8 12.6
21:40 1013 29.91 842 24.86 -6.8 19.8 71 -11.1 12
21:45 1013 29.91 842 24.86 -6.9 19.7 70 -11.4 11.5
21:50 1013 29.91 842 24.86 -6.5 20.3 69 -11.2 11.8
21:55 1013 29.91 842 24.86 -6.6 20.2 70 -11.2 11.9
22:00 1012 29.88 842 24.86 -6.8 19.7 71 -11.3 11.7
22:05 1012 29.88 842 24.86 -6.9 19.5 71 -11.3 11.6
22:10 1012 29.88 842 24.86 -6.7 19.9 70 -11.3 11.6
22:15 1012 29.88 842 24.86 -6.9 19.6 71 -11.2 11.8
22:20 1012 29.88 842 24.86 -7.2 19 73 -11.3 11.6
22:25 1012 29.88 842 24.86 -7.6 18.3 76 -11.1 12.1
22:30 1012 29.88 842 24.86 -7.7 18.1 77 -11 12.1
22:35 1012 29.88 842 24.86 -7.6 18.3 77 -11 12.1
22:40 1012 29.88 841 24.83 -7.5 18.5 76 -11.1 12
22:45 1012 29.88 841 24.83 -7.6 18.4 76 -11.2 11.9
22:50 1012 29.88 841 24.83 -7.8 18 78 -11 12.2
22:55 1012 29.88 841 24.83 -7.8 18 76 -11.2 11.8
23:00 1012 29.88 841 24.83 -7.9 17.9 77 -11.2 11.8
23:05 1012 29.88 841 24.83 -7.8 17.9 75 -11.5 11.2
23:10 1012 29.88 841 24.83 -8.4 16.9 77 -11.7 10.9
23:15 1012 29.88 841 24.83 -8.1 17.3 76 -11.7 10.9
23:20 1012 29.88 841 24.83 -7.8 18 75 -11.5 11.3
23:25 1012 29.88 841 24.83 -8 17.6 76 -11.5 11.3
23:30 1012 29.88 841 24.83 -8.3 17.1 77 -11.7 11
23:35 1012 29.88 841 24.83 -8.3 17.2 76 -11.7 10.9
23:40 1012 29.88 841 24.83 -8.2 17.2 76 -11.8 10.8
23:45 1012 29.88 841 24.83 -8.1 17.4 74 -11.9 10.6
23:50 1012 29.88 841 24.83 -8.4 16.8 76 -12 10.5
23:55 1012 29.88 841 24.83 -8.7 16.3 78 -11.9 10.6
24:00 1012 29.88 841 24.83 -8.5 16.6 77 -11.9 10.6